^^
Grace C. Lehan Memorial Weather Station Historical Data
Daily Summary for September 30, 2022 Units:  Metric    English   Both
Daily Weekly Monthly Yearly
  High: Low: Average:
Temperature: 17.2 °C 7.3 °C 12.4 °C
Dew Point: 11.7 °C 5.1 °C 8.7 °C
Humidity: 88% 67% 79%
Wind Speed: 3.2km/h 0km/h 0.3km/h
Wind Gust: 16.1km/h - -
Wind- - SE
Pressure: 1027.7 hPa 1021.2 hPa -
Precipitation: 0 mm    
 
 
Tabular Data for September 30, 2022
Time Temperature Dew Point Pressure Wind Wind Speed Wind Gust Humidity Rainfall Rate (Hourly) solar
00:04 10.8 °C 7.2 °C 1027.3 hPa Calm     78% 0 mm 0 W/m2
00:09 10.8 °C 7.2 °C 1027.3 hPa Calm     78.5% 0 mm 0 W/m2
00:14 10.7 °C 7.2 °C 1027.3 hPa Calm     79% 0 mm 0 W/m2
00:19 10.7 °C 7.2 °C 1027.3 hPa Calm     79% 0 mm 0 W/m2
00:24 10.6 °C 7.1 °C 1027.3 hPa Calm     79.1% 0 mm 0 W/m2
00:29 10.5 °C 7.2 °C 1027.3 hPa Calm     80% 0 mm 0 W/m2
00:34 10.4 °C 7.1 °C 1027.3 hPa Calm     80% 0 mm 0 W/m2
00:39 10.3 °C 7.1 °C 1027.3 hPa Calm     80% 0 mm 0 W/m2
00:44 10.3 °C 7.2 °C 1027.3 hPa Calm     80.8% 0 mm 0 W/m2
00:49 10.2 °C 7.1 °C 1027.3 hPa Calm     81% 0 mm 0 W/m2
00:54 10.2 °C 7.1 °C 1027.3 hPa Calm     81% 0 mm 0 W/m2
00:59 10.2 °C 7.1 °C 1027.3 hPa Calm     81% 0 mm 0 W/m2
01:04 10.1 °C 7 °C 1027.3 hPa Calm   1.6 km/h 81.1% 0 mm 0 W/m2
01:09 10.1 °C 7.1 °C 1027.3 hPa Calm   1.6 km/h 82% 0 mm 0 W/m2
01:14 10 °C 7.1 °C 1027.3 hPa Calm   1.6 km/h 82% 0 mm 0 W/m2
01:19 9.9 °C 7.1 °C 1027.3 hPa NNW 0.2 km/h 3.2 km/h 82% 0 mm 0 W/m2
01:24 9.9 °C 7 °C 1027.3 hPa NNW 0.8 km/h 8 km/h 82% 0 mm 0 W/m2
01:29 9.9 °C 6.9 °C 1027.3 hPa Calm   8 km/h 82% 0 mm 0 W/m2
01:34 9.8 °C 6.9 °C 1027.3 hPa Calm   8 km/h 82% 0 mm 0 W/m2
01:39 9.8 °C 6.9 °C 1027.3 hPa Calm   1.6 km/h 82% 0 mm 0 W/m2
01:44 9.8 °C 6.8 °C 1027.3 hPa Calm   1.6 km/h 82% 0 mm 0 W/m2
01:49 9.7 °C 6.8 °C 1027.3 hPa Calm   1.6 km/h 82% 0 mm 0 W/m2
01:54 9.7 °C 6.8 °C 1027.3 hPa Calm   1.6 km/h 82% 0 mm 0 W/m2
01:59 9.7 °C 6.7 °C 1027.3 hPa NW 0.2 km/h 3.2 km/h 82% 0 mm 0 W/m2
02:04 9.7 °C 6.7 °C 1027.3 hPa Calm   3.2 km/h 82% 0 mm 0 W/m2
02:09 9.6 °C 6.7 °C 1027.3 hPa NW 0.2 km/h 3.2 km/h 82% 0 mm 0 W/m2
02:14 9.6 °C 6.7 °C 1027.3 hPa Calm   3.2 km/h 82% 0 mm 0 W/m2
02:19 9.6 °C 6.7 °C 1027.3 hPa Calm   3.2 km/h 82% 0 mm 0 W/m2
02:24 9.5 °C 6.6 °C 1027.3 hPa Calm   3.2 km/h 82% 0 mm 0 W/m2
02:29 9.4 °C 6.6 °C 1027.3 hPa Calm   3.2 km/h 82% 0 mm 0 W/m2
02:34 9.4 °C 6.5 °C 1027.3 hPa Calm   3.2 km/h 82% 0 mm 0 W/m2
02:39 9.3 °C 6.4 °C 1027.3 hPa Calm     82% 0 mm 0 W/m2
02:44 9.3 °C 6.4 °C 1027.3 hPa Calm     82% 0 mm 0 W/m2
02:49 9.2 °C 6.3 °C 1027 hPa Calm     82% 0 mm 0 W/m2
02:54 9.2 °C 6.2 °C 1027 hPa Calm     82% 0 mm 0 W/m2
02:59 9.1 °C 6.3 °C 1027 hPa Calm     82.8% 0 mm 0 W/m2
03:04 9 °C 6.4 °C 1027 hPa Calm     83.5% 0 mm 0 W/m2
03:09 8.9 °C 6.2 °C 1027 hPa Calm     83% 0 mm 0 W/m2
03:14 8.9 °C 6.2 °C 1027 hPa Calm     83.1% 0 mm 0 W/m2
03:19 8.8 °C 6.3 °C 1027 hPa Calm     84% 0 mm 0 W/m2
03:24 8.8 °C 6.2 °C 1027 hPa Calm     84% 0 mm 0 W/m2
03:29 8.8 °C 6.1 °C 1026.6 hPa Calm   1.6 km/h 83.6% 0 mm 0 W/m2
03:34 8.7 °C 6 °C 1026.6 hPa NNW 0.8 km/h 6.4 km/h 83% 0 mm 0 W/m2
03:39 8.7 °C 5.9 °C 1026.6 hPa NNW 0.3 km/h 6.4 km/h 83% 0 mm 0 W/m2
03:44 8.7 °C 5.9 °C 1026.6 hPa NNW 0.2 km/h 6.4 km/h 83.1% 0 mm 0 W/m2
03:49 8.6 °C 6.1 °C 1026.6 hPa NNW 0.3 km/h 6.4 km/h 84% 0 mm 0 W/m2
03:54 8.6 °C 6.1 °C 1026.6 hPa Calm   6.4 km/h 84% 0 mm 0 W/m2
03:59 8.6 °C 6 °C 1026.6 hPa Calm   6.4 km/h 84% 0 mm 0 W/m2
04:09 8.5 °C 5.9 °C 1027 hPa NNW 0.2 km/h 3.2 km/h 84% 0 mm 0 W/m2
04:14 8.5 °C 5.9 °C 1027 hPa NNW 0.2 km/h 4.8 km/h 84% 0 mm 0 W/m2
04:19 8.4 °C 5.9 °C 1027 hPa Calm   4.8 km/h 84% 0 mm 0 W/m2
04:24 8.4 °C 5.8 °C 1027 hPa NNW 0.2 km/h 4.8 km/h 84% 0 mm 0 W/m2
04:29 8.3 °C 5.8 °C 1027 hPa Calm   4.8 km/h 84% 0 mm 0 W/m2
04:34 8.3 °C 5.8 °C 1027 hPa Calm   4.8 km/h 84% 0 mm 0 W/m2
04:39 8.3 °C 5.7 °C 1026.6 hPa NNW 0.5 km/h 4.8 km/h 84% 0 mm 0 W/m2
04:44 8.2 °C 5.7 °C 1026.6 hPa NNW 0.3 km/h 8 km/h 84% 0 mm 0 W/m2
04:49 8.2 °C 5.6 °C 1026.6 hPa NNW 0.2 km/h 8 km/h 84% 0 mm 0 W/m2
04:54 8.2 °C 5.6 °C 1026.6 hPa NNW 0.5 km/h 8 km/h 84% 0 mm 0 W/m2
04:59 8.1 °C 5.6 °C 1027 hPa NNW 0.8 km/h 8 km/h 84% 0 mm 0 W/m2
05:04 8.1 °C 5.6 °C 1027 hPa Calm   8 km/h 84% 0 mm 0 W/m2
05:09 8.1 °C 5.6 °C 1027 hPa NNW 0.5 km/h 8 km/h 84% 0 mm 0 W/m2
05:14 8.1 °C 5.5 °C 1027 hPa NE 0.3 km/h 8 km/h 83.8% 0 mm 0 W/m2
05:19 8.1 °C 5.3 °C 1027 hPa NNE 0.2 km/h 8 km/h 83% 0 mm 0 W/m2
05:24 8.1 °C 5.3 °C 1027 hPa NNW 1 km/h 16.1 km/h 83% 0 mm 0 W/m2
05:29 8.1 °C 5.3 °C 1027 hPa Calm   16.1 km/h 83% 0 mm 0 W/m2
05:34 8.1 °C 5.3 °C 1027.3 hPa Calm   16.1 km/h 83% 0 mm 0 W/m2
05:39 8 °C 5.3 °C 1027.3 hPa NE 0.3 km/h 4.8 km/h 83% 0 mm 0 W/m2
05:44 8 °C 5.3 °C 1027.3 hPa North 0.2 km/h 4.8 km/h 83% 0 mm 0 W/m2
05:49 8 °C 5.3 °C 1027.3 hPa Calm   4.8 km/h 83.2% 0 mm 0 W/m2
05:54 8 °C 5.3 °C 1027.3 hPa Calm   4.8 km/h 83.2% 0 mm 0 W/m2
05:59 7.9 °C 5.3 °C 1027.3 hPa Calm   4.8 km/h 83.2% 0 mm 0 W/m2
06:04 7.9 °C 5.2 °C 1027 hPa Calm   4.8 km/h 83% 0 mm 0 W/m2
06:09 7.8 °C 5.2 °C 1027.3 hPa Calm   1.6 km/h 83% 0 mm 0 W/m2
06:14 7.8 °C 5.1 °C 1027.3 hPa Calm   1.6 km/h 83% 0 mm 0 W/m2
06:19 7.7 °C 5.1 °C 1027.3 hPa Calm   1.6 km/h 83.6% 0 mm 0 W/m2
06:24 7.7 °C 5.2 °C 1027.3 hPa North 0.5 km/h 4.8 km/h 84% 0 mm 0 W/m2
06:29 7.6 °C 5.1 °C 1027.3 hPa Calm   4.8 km/h 84% 0 mm 0 W/m2
06:34 7.6 °C 5.1 °C 1027.3 hPa Calm   4.8 km/h 84% 0 mm 0 W/m2
06:39 7.6 °C 5.1 °C 1027.3 hPa Calm     84.4% 0 mm 0 W/m2
06:44 7.5 °C 5.2 °C 1027.3 hPa Calm     85% 0 mm 0 W/m2
06:49 7.4 °C 5.1 °C 1027.3 hPa Calm     85% 0 mm 0 W/m2
06:54 7.4 °C 5.1 °C 1027.3 hPa Calm     85% 0 mm 5 W/m2
06:59 7.4 °C 5.1 °C 1027.3 hPa Calm     85.5% 0 mm 9 W/m2
07:04 7.3 °C 5.2 °C 1027.7 hPa Calm     86% 0 mm 14 W/m2
07:09 7.3 °C 5.2 °C 1027.7 hPa North 0.2 km/h 3.2 km/h 86% 0 mm 19 W/m2
07:14 7.3 °C 5.2 °C 1027.7 hPa Calm   3.2 km/h 86% 0 mm 26 W/m2
07:19 7.4 °C 5.2 °C 1027.3 hPa Calm   3.2 km/h 86% 0 mm 32 W/m2
07:24 7.4 °C 5.2 °C 1027.7 hPa North 0.2 km/h 3.2 km/h 86% 0 mm 39 W/m2
07:29 7.4 °C 5.3 °C 1027.7 hPa Calm   3.2 km/h 86% 0 mm 46 W/m2
07:34 7.5 °C 5.3 °C 1027.7 hPa Calm   3.2 km/h 86% 0 mm 53 W/m2
07:39 7.6 °C 5.3 °C 1027.7 hPa NNE 0.5 km/h 4.8 km/h 86% 0 mm 56 W/m2
07:44 7.6 °C 5.4 °C 1027.7 hPa Calm   4.8 km/h 86% 0 mm 67 W/m2
07:49 7.7 °C 5.5 °C 1027.7 hPa Calm   4.8 km/h 86% 0 mm 67 W/m2
07:54 7.8 °C 5.6 °C 1027.7 hPa Calm   4.8 km/h 86% 0 mm 95 W/m2
07:59 7.9 °C 5.7 °C 1027.7 hPa NNW 0.5 km/h 9.7 km/h 85.9% 0 mm 88 W/m2
08:00 8 °C 5.6 °C 1027.7 hPa Calm   9.7 km/h 85% 0 mm 88 W/m2
08:09 8.2 °C 5.8 °C 1027.7 hPa NE 0.5 km/h 4.8 km/h 85% 0 mm 91 W/m2
08:14 8.3 °C 5.9 °C 1027.7 hPa NE 0.2 km/h 4.8 km/h 84.9% 0 mm 98 W/m2
08:19 8.4 °C 5.8 °C 1027.7 hPa NE 0.3 km/h 4.8 km/h 84% 0 mm 100 W/m2
08:24 8.4 °C 5.9 °C 1027.7 hPa North 0.2 km/h 4.8 km/h 84% 0 mm 109 W/m2
08:29 8.6 °C 6 °C 1027.7 hPa North 0.5 km/h 4.8 km/h 84% 0 mm 114 W/m2
08:34 8.7 °C 6 °C 1027.7 hPa ENE 0.2 km/h 4.8 km/h 83% 0 mm 155 W/m2
08:39 8.9 °C 6.2 °C 1027.7 hPa ENE 0.6 km/h 8 km/h 83.4% 0 mm 192 W/m2
08:44 9.1 °C 6.3 °C 1027.7 hPa North 0.8 km/h 9.7 km/h 82.8% 0 mm 202 W/m2
08:49 9.3 °C 6.4 °C 1027.7 hPa North 1 km/h 9.7 km/h 82% 0 mm 169 W/m2
08:54 9.6 °C 6.4 °C 1027.7 hPa ENE 0.6 km/h 14.5 km/h 81% 0 mm 167 W/m2
08:59 9.7 °C 6.4 °C 1027.7 hPa NE 1.3 km/h 14.5 km/h 80.2% 0 mm 169 W/m2
09:04 9.8 °C 6.7 °C 1027.7 hPa NE 1.1 km/h 14.5 km/h 80.9% 0 mm 181 W/m2
09:09 10.1 °C 6.9 °C 1027.7 hPa NE 0.3 km/h 6.4 km/h 80.8% 0 mm 348 W/m2
09:14 10.4 °C 7.2 °C 1027.7 hPa North 0.3 km/h 6.4 km/h 80.5% 0 mm 429 W/m2
09:19 10.8 °C 7.6 °C 1027.7 hPa NNW 0.3 km/h 6.4 km/h 80.2% 0 mm 429 W/m2
09:24 11.2 °C 7.5 °C 1027.7 hPa East 0.2 km/h 6.4 km/h 77.9% 0 mm 339 W/m2
09:29 11.4 °C 7.6 °C 1027.7 hPa NNW 1 km/h 11.3 km/h 77.3% 0 mm 489 W/m2
09:34 11.8 °C 7.7 °C 1027.7 hPa NW 0.6 km/h 11.3 km/h 76.2% 0 mm 489 W/m2
09:39 11.9 °C 7.7 °C 1027.3 hPa NW 1 km/h 9.7 km/h 75.2% 0 mm 323 W/m2
09:44 11.9 °C 7.4 °C 1027.3 hPa ENE 2.7 km/h 11.3 km/h 74.1% 0 mm 330 W/m2
09:49 11.8 °C 7.4 °C 1027.3 hPa NE 1.6 km/h 12.9 km/h 74.5% 0 mm 508 W/m2
09:54 12.1 °C 7.8 °C 1027.3 hPa NNE 0.6 km/h 12.9 km/h 75.4% 0 mm 508 W/m2
09:59 12.3 °C 8 °C 1027.3 hPa NNE 0.8 km/h 12.9 km/h 75% 0 mm 526 W/m2
10:04 12.6 °C 8.1 °C 1027.7 hPa NNE 0.3 km/h 12.9 km/h 73.8% 0 mm 578 W/m2
10:09 12.9 °C 8.4 °C 1027.3 hPa ENE 1.6 km/h 9.7 km/h 73.8% 0 mm 568 W/m2
10:14 13.3 °C 8.7 °C 1027.3 hPa NNE 0.8 km/h 9.7 km/h 73.4% 0 mm 580 W/m2
10:19 13.8 °C 8.9 °C 1027.3 hPa North 0.5 km/h 9.7 km/h 72.5% 0 mm 584 W/m2
10:24 14.1 °C 9.1 °C 1027.3 hPa North 0.6 km/h 9.7 km/h 71.5% 0 mm 599 W/m2
10:29 14.4 °C 9.1 °C 1027.3 hPa ENE 0.6 km/h 9.7 km/h 70% 0 mm 594 W/m2
10:34 14.6 °C 9.3 °C 1027 hPa North 1.1 km/h 9.7 km/h 70.2% 0 mm 552 W/m2
10:39 14.8 °C 9.1 °C 1027 hPa NE 1.8 km/h 6.4 km/h 68.7% 0 mm 496 W/m2
10:44 14.5 °C 8.8 °C 1027 hPa NNE 0.8 km/h 8 km/h 68.3% 0 mm 424 W/m2
10:49 14.3 °C 9 °C 1027 hPa NW 0.2 km/h 8 km/h 70.4% 0 mm 538 W/m2
10:54 14.4 °C 9.2 °C 1027 hPa NW 0.3 km/h 8 km/h 71.2% 0 mm 468 W/m2
10:59 14.6 °C 9.4 °C 1027 hPa NW 0.6 km/h 8 km/h 71.1% 0 mm 415 W/m2
11:04 14.7 °C 9.3 °C 1026.6 hPa NW 1 km/h 8 km/h 70.2% 0 mm 399 W/m2
11:09 14.8 °C 9.6 °C 1026.6 hPa North 1 km/h 4.8 km/h 71.1% 0 mm 473 W/m2
11:14 14.9 °C 9.4 °C 1026.6 hPa ENE 1.1 km/h 4.8 km/h 69.8% 0 mm 529 W/m2
11:19 14.9 °C 9.5 °C 1026.6 hPa ENE 2.3 km/h 8 km/h 70% 0 mm 455 W/m2
11:24 14.9 °C 9.6 °C 1026.6 hPa NNW 0.8 km/h 8 km/h 70.3% 0 mm 410 W/m2
11:29 15.1 °C 9.9 °C 1026.6 hPa Calm   8 km/h 71.5% 0 mm 383 W/m2
11:34 15.2 °C 10.1 °C 1026.6 hPa NW 0.8 km/h 11.3 km/h 71.3% 0 mm 348 W/m2
11:39 15.3 °C 9.9 °C 1026.6 hPa Calm   11.3 km/h 70.4% 0 mm 309 W/m2
11:44 15.3 °C 9.8 °C 1026.3 hPa NE 0.3 km/h 11.3 km/h 69.9% 0 mm 276 W/m2
11:49 15.2 °C 9.8 °C 1026.3 hPa NE 0.3 km/h 11.3 km/h 70.4% 0 mm 260 W/m2
11:54 15.1 °C 9.7 °C 1026.3 hPa NE 1 km/h 11.3 km/h 70.2% 0 mm 276 W/m2
11:59 15 °C 9.7 °C 1026.3 hPa ENE 1 km/h 11.3 km/h 70.7% 0 mm 288 W/m2
12:00 14.9 °C 9.7 °C 1026.3 hPa Calm   11.3 km/h 71% 0 mm 288 W/m2
12:09 14.9 °C 9.8 °C 1026.3 hPa ENE 0.3 km/h 3.2 km/h 71% 0 mm 316 W/m2
12:14 15.1 °C 10.1 °C 1026 hPa NE 0.2 km/h 3.2 km/h 72.2% 0 mm 352 W/m2
12:19 15.3 °C 10.8 °C 1026 hPa NE 0.3 km/h 6.4 km/h 74.1% 0 mm 355 W/m2
12:24 15.6 °C 10.6 °C 1026 hPa NE 0.5 km/h 6.4 km/h 72.2% 0 mm 376 W/m2
12:29 15.8 °C 10.8 °C 1025.6 hPa NNW 1.3 km/h 8 km/h 72% 0 mm 394 W/m2
12:34 16.1 °C 10.9 °C 1025.6 hPa WNW 1.1 km/h 8 km/h 71.3% 0 mm 397 W/m2
12:39 16.3 °C 10.8 °C 1025.6 hPa NNW 1.3 km/h 8 km/h 70% 0 mm 366 W/m2
12:44 16.4 °C 11 °C 1025.6 hPa NW 0.8 km/h 8 km/h 70.4% 0 mm 327 W/m2
12:49 16.6 °C 11.1 °C 1025.6 hPa NNW 0.5 km/h 8 km/h 70% 0 mm 325 W/m2
12:54 16.6 °C 11 °C 1025.3 hPa NNE 0.5 km/h 8 km/h 69.5% 0 mm 313 W/m2
12:59 16.6 °C 11.1 °C 1025.3 hPa NE 0.6 km/h 8 km/h 69.7% 0 mm 316 W/m2
13:04 16.5 °C 10.7 °C 1024.9 hPa NE 0.5 km/h 8 km/h 68.5% 0 mm 366 W/m2
13:09 16.4 °C 10.7 °C 1024.9 hPa NNE 1.3 km/h 6.4 km/h 68.9% 0 mm 353 W/m2
13:14 16.5 °C 10.8 °C 1024.9 hPa NE 1.6 km/h 9.7 km/h 69.1% 0 mm 315 W/m2
13:19 16.5 °C 10.6 °C 1024.6 hPa ENE 1.8 km/h 9.7 km/h 68.2% 0 mm 325 W/m2
13:24 16.4 °C 10.6 °C 1024.6 hPa ENE 0.8 km/h 9.7 km/h 68.5% 0 mm 325 W/m2
13:29 16.6 °C 10.9 °C 1024.3 hPa NNE 1.1 km/h 9.7 km/h 69.3% 0 mm 323 W/m2
13:34 16.6 °C 11 °C 1024.3 hPa NNE 0.2 km/h 9.7 km/h 69.4% 0 mm 336 W/m2
13:39 16.7 °C 10.8 °C 1024.3 hPa NNW 1.8 km/h 9.7 km/h 68.3% 0 mm 352 W/m2
13:44 16.8 °C 11 °C 1024.3 hPa NW 0.8 km/h 9.7 km/h 68.7% 0 mm 318 W/m2
13:49 16.8 °C 10.8 °C 1024.3 hPa NNE 1.6 km/h 9.7 km/h 67.8% 0 mm 294 W/m2
13:54 16.8 °C 10.9 °C 1024.3 hPa NE 3.2 km/h 9.7 km/h 68% 0 mm 250 W/m2
13:59 16.7 °C 10.7 °C 1023.9 hPa NE 1.9 km/h 14.5 km/h 67.7% 0 mm 250 W/m2
14:04 16.7 °C 10.9 °C 1023.9 hPa NE 2.1 km/h 14.5 km/h 68.5% 0 mm 227 W/m2
14:09 16.6 °C 10.9 °C 1023.9 hPa North 0.8 km/h 11.3 km/h 68.9% 0 mm 239 W/m2
14:14 16.6 °C 10.9 °C 1023.9 hPa NE 1.8 km/h 11.3 km/h 69% 0 mm 248 W/m2
14:19 16.6 °C 10.8 °C 1023.9 hPa NE 0.6 km/h 11.3 km/h 68.8% 0 mm 269 W/m2
14:24 16.6 °C 10.7 °C 1023.9 hPa NE 2.7 km/h 11.3 km/h 68.3% 0 mm 281 W/m2
14:29 16.6 °C 10.7 °C 1023.9 hPa Calm   11.3 km/h 68.3% 0 mm 281 W/m2
14:34 16.6 °C 10.8 °C 1023.9 hPa NE 0.5 km/h 11.3 km/h 68.5% 0 mm 251 W/m2
14:39 16.7 °C 10.9 °C 1023.6 hPa NE 0.6 km/h 4.8 km/h 68.9% 0 mm 253 W/m2
14:44 16.7 °C 11 °C 1023.6 hPa NNE 0.6 km/h 4.8 km/h 68.9% 0 mm 246 W/m2
14:49 16.8 °C 11 °C 1023.6 hPa NNE 0.2 km/h 4.8 km/h 68.6% 0 mm 221 W/m2
14:54 16.9 °C 11.2 °C 1023.9 hPa Calm   4.8 km/h 69% 0 mm 218 W/m2
14:59 16.9 °C 11.2 °C 1023.6 hPa NE 1 km/h 4.8 km/h 69% 0 mm 221 W/m2
15:04 16.9 °C 11.1 °C 1023.9 hPa Calm   4.8 km/h 68.5% 0 mm 225 W/m2
15:09 16.9 °C 10.8 °C 1023.6 hPa Calm   1.6 km/h 67.3% 0 mm 225 W/m2
15:14 16.9 °C 11.2 °C 1023.6 hPa Calm   1.6 km/h 68.6% 0 mm 211 W/m2
15:19 17 °C 11.3 °C 1023.6 hPa NE 0.2 km/h 1.6 km/h 69% 0 mm 181 W/m2
15:24 17.1 °C 11.4 °C 1023.6 hPa NNE 1 km/h 4.8 km/h 69.2% 0 mm 192 W/m2
15:29 17.1 °C 11.4 °C 1023.9 hPa Calm   4.8 km/h 69.2% 0 mm 193 W/m2
15:34 17.2 °C 11.5 °C 1023.6 hPa Calm   4.8 km/h 69.2% 0 mm 185 W/m2
15:39 17.2 °C 11.1 °C 1023.9 hPa NE 0.3 km/h 3.2 km/h 67.5% 0 mm 181 W/m2
15:44 17.1 °C 10.9 °C 1023.6 hPa Calm   3.2 km/h 67% 0 mm 174 W/m2
15:49 17.1 °C 11.1 °C 1023.6 hPa NE 0.3 km/h 3.2 km/h 68.1% 0 mm 153 W/m2
15:54 17 °C 11.1 °C 1023.6 hPa Calm   3.2 km/h 68.3% 0 mm 139 W/m2
15:59 17 °C 11.2 °C 1023.6 hPa NE 0.3 km/h 3.2 km/h 68.8% 0 mm 132 W/m2
16:00 17 °C 11.3 °C 1023.6 hPa Calm   3.2 km/h 69% 0 mm 123 W/m2
16:09 16.9 °C 11.2 °C 1023.6 hPa Calm     68.9% 0 mm 113 W/m2
16:14 16.9 °C 11.4 °C 1023.6 hPa Calm   1.6 km/h 70.1% 0 mm 123 W/m2
16:19 16.9 °C 11.2 °C 1023.2 hPa NNE 0.5 km/h 6.4 km/h 69.3% 0 mm 121 W/m2
16:24 16.9 °C 11.3 °C 1023.2 hPa Calm   6.4 km/h 69.6% 0 mm 121 W/m2
16:29 16.9 °C 11.4 °C 1023.2 hPa NNE 0.8 km/h 6.4 km/h 69.9% 0 mm 116 W/m2
16:34 16.8 °C 11.3 °C 1023.2 hPa NNE 0.8 km/h 6.4 km/h 70% 0 mm 111 W/m2
16:39 16.8 °C 11.4 °C 1023.2 hPa NNE 0.2 km/h 4.8 km/h 70.2% 0 mm 104 W/m2
16:44 16.8 °C 11.4 °C 1022.9 hPa NNE 0.2 km/h 4.8 km/h 70.3% 0 mm 102 W/m2
16:49 16.8 °C 11.4 °C 1022.9 hPa Calm   4.8 km/h 70.5% 0 mm 100 W/m2
16:54 16.8 °C 11.5 °C 1022.9 hPa Calm   4.8 km/h 71% 0 mm 93 W/m2
16:59 16.8 °C 11.7 °C 1022.9 hPa NNE 0.2 km/h 4.8 km/h 71.9% 0 mm 86 W/m2
17:04 16.7 °C 11.6 °C 1022.9 hPa NNE 0.5 km/h 6.4 km/h 71.5% 0 mm 77 W/m2
17:09 16.6 °C 11.3 °C 1022.6 hPa NNE 0.8 km/h 6.4 km/h 71% 0 mm 72 W/m2
17:14 16.5 °C 11.3 °C 1022.6 hPa Calm   6.4 km/h 71.4% 0 mm 69 W/m2
17:19 16.4 °C 11.4 °C 1022.6 hPa NNE 0.5 km/h 6.4 km/h 72% 0 mm 65 W/m2
17:24 16.3 °C 11.4 °C 1022.6 hPa Calm   6.4 km/h 72.6% 0 mm 56 W/m2
17:29 16.3 °C 11.4 °C 1022.2 hPa NNE 0.2 km/h 6.4 km/h 73% 0 mm 53 W/m2
17:34 16.2 °C 11.4 °C 1022.2 hPa NNE 0.2 km/h 6.4 km/h 73.1% 0 mm 47 W/m2
17:39 16.1 °C 11.5 °C 1022.2 hPa North 1.3 km/h 6.4 km/h 74% 0 mm 44 W/m2
17:44 16 °C 11.4 °C 1022.2 hPa Calm   6.4 km/h 74% 0 mm 40 W/m2
17:49 15.9 °C 11.3 °C 1022.2 hPa Calm   6.4 km/h 74% 0 mm 35 W/m2
17:54 15.8 °C 11.2 °C 1022.2 hPa Calm   6.4 km/h 74% 0 mm 32 W/m2
17:59 15.8 °C 11.2 °C 1022.2 hPa North 0.2 km/h 6.4 km/h 74% 0 mm 26 W/m2
18:04 15.7 °C 11.1 °C 1022.2 hPa Calm   6.4 km/h 74% 0 mm 21 W/m2
18:09 15.6 °C 11 °C 1022.2 hPa North 0.5 km/h 4.8 km/h 74% 0 mm 16 W/m2
18:14 15.5 °C 11.1 °C 1022.2 hPa Calm   4.8 km/h 74.7% 0 mm 12 W/m2
18:19 15.4 °C 11.1 °C 1021.9 hPa Calm   4.8 km/h 75% 0 mm 9 W/m2
18:24 15.3 °C 11.1 °C 1021.9 hPa Calm   4.8 km/h 75.5% 0 mm 5 W/m2
18:29 15.3 °C 11.1 °C 1021.9 hPa Calm   4.8 km/h 76% 0 mm 0 W/m2
18:34 15.2 °C 11 °C 1022.2 hPa Calm   4.8 km/h 76% 0 mm 0 W/m2
18:39 15.1 °C 11.1 °C 1022.2 hPa Calm     76.9% 0 mm 0 W/m2
18:44 15 °C 11 °C 1022.2 hPa Calm     77% 0 mm 0 W/m2
18:49 14.9 °C 10.9 °C 1022.2 hPa Calm     77% 0 mm 0 W/m2
18:54 14.8 °C 10.8 °C 1022.2 hPa Calm     77% 0 mm 0 W/m2
18:59 14.7 °C 10.9 °C 1022.2 hPa Calm     77.9% 0 mm 0 W/m2
19:04 14.7 °C 10.9 °C 1022.2 hPa Calm     78% 0 mm 0 W/m2
19:09 14.6 °C 10.9 °C 1022.2 hPa Calm     78.3% 0 mm 0 W/m2
19:14 14.5 °C 10.9 °C 1022.2 hPa Calm     79% 0 mm 0 W/m2
19:19 14.4 °C 10.8 °C 1022.2 hPa Calm     79% 0 mm 0 W/m2
19:24 14.3 °C 10.7 °C 1021.9 hPa Calm     79% 0 mm 0 W/m2
19:29 14.3 °C 10.7 °C 1022.2 hPa Calm     79% 0 mm 0 W/m2
19:34 14.2 °C 10.6 °C 1021.9 hPa Calm     79.2% 0 mm 0 W/m2
19:39 14.1 °C 10.7 °C 1021.9 hPa Calm     80% 0 mm 0 W/m2
19:44 14 °C 10.6 °C 1021.9 hPa Calm     80% 0 mm 0 W/m2
19:49 13.9 °C 10.5 °C 1021.9 hPa Calm     80% 0 mm 0 W/m2
19:54 13.8 °C 10.4 °C 1021.9 hPa Calm     80% 0 mm 0 W/m2
19:59 13.7 °C 10.3 °C 1021.9 hPa Calm     80.2% 0 mm 0 W/m2
20:00 13.7 °C 10.4 °C 1021.9 hPa Calm     81% 0 mm 0 W/m2
20:09 13.5 °C 10.3 °C 1021.9 hPa Calm     81% 0 mm 0 W/m2
20:14 13.4 °C 10.3 °C 1021.9 hPa Calm     81.2% 0 mm 0 W/m2
20:49 12.9 °C 10.3 °C 1022.2 hPa Calm     84% 0 mm 0 W/m2
20:54 12.8 °C 10.2 °C 1022.2 hPa Calm     84% 0 mm 0 W/m2
20:59 12.8 °C 10.2 °C 1022.2 hPa Calm     84.4% 0 mm 0 W/m2
21:04 12.7 °C 10.3 °C 1022.2 hPa Calm     85% 0 mm 0 W/m2
21:09 12.7 °C 10.2 °C 1022.2 hPa Calm     85% 0 mm 0 W/m2
21:14 12.6 °C 10.3 °C 1021.9 hPa Calm     86% 0 mm 0 W/m2
21:19 12.5 °C 10.2 °C 1021.9 hPa Calm     86% 0 mm 0 W/m2
21:24 12.4 °C 10.2 °C 1021.9 hPa Calm     86% 0 mm 0 W/m2
21:29 12.4 °C 10.1 °C 1021.9 hPa Calm     86% 0 mm 0 W/m2
21:34 12.3 °C 10.1 °C 1021.9 hPa Calm     86% 0 mm 0 W/m2
21:39 12.3 °C 10.2 °C 1021.9 hPa Calm     86.6% 0 mm 0 W/m2
21:44 12.3 °C 10.2 °C 1021.9 hPa Calm     87% 0 mm 0 W/m2
21:49 12.3 °C 10.2 °C 1021.9 hPa Calm     87% 0 mm 0 W/m2
21:54 12.2 °C 10.1 °C 1021.9 hPa Calm     87% 0 mm 0 W/m2
21:59 12.2 °C 10.1 °C 1021.9 hPa Calm     87% 0 mm 0 W/m2
22:04 12.2 °C 10.1 °C 1021.9 hPa Calm     87% 0 mm 0 W/m2
22:09 12.2 °C 10.1 °C 1021.6 hPa Calm     87% 0 mm 0 W/m2
22:14 12.2 °C 10.1 °C 1021.6 hPa Calm     87% 0 mm 0 W/m2
22:19 12.2 °C 10.1 °C 1021.6 hPa Calm     87% 0 mm 0 W/m2
22:24 12.1 °C 10.1 °C 1021.9 hPa Calm     87.3% 0 mm 0 W/m2
22:29 12.1 °C 10.2 °C 1021.9 hPa Calm     88% 0 mm 0 W/m2
22:34 12.1 °C 10.2 °C 1021.6 hPa Calm     88% 0 mm 0 W/m2
22:39 12.1 °C 10.1 °C 1021.9 hPa Calm     88% 0 mm 0 W/m2
22:44 12.1 °C 10.1 °C 1021.6 hPa Calm     88% 0 mm 0 W/m2
22:49 12.1 °C 10.1 °C 1021.6 hPa Calm     88% 0 mm 0 W/m2
22:54 12 °C 10.1 °C 1021.6 hPa Calm     88% 0 mm 0 W/m2
22:59 12 °C 10.1 °C 1021.6 hPa Calm     88% 0 mm 0 W/m2
23:04 12 °C 10.1 °C 1021.6 hPa Calm     88% 0 mm 0 W/m2
23:09 12 °C 10.1 °C 1021.2 hPa Calm     88% 0 mm 0 W/m2
23:14 11.9 °C 10.1 °C 1021.2 hPa Calm     88% 0 mm 0 W/m2
23:19 11.9 °C 10 °C 1021.2 hPa Calm     88% 0 mm 0 W/m2
23:24 11.9 °C 10 °C 1021.2 hPa Calm     88% 0 mm 0 W/m2
23:29 11.9 °C 10 °C 1021.2 hPa Calm     88% 0 mm 0 W/m2
23:34 11.9 °C 10 °C 1021.2 hPa Calm     88% 0 mm 0 W/m2
23:39 11.9 °C 10 °C 1021.2 hPa Calm     88% 0 mm 0 W/m2
23:44 11.9 °C 10 °C 1021.2 hPa Calm     88% 0 mm 0 W/m2
23:49 11.9 °C 10 °C 1021.2 hPa Calm     88% 0 mm 0 W/m2
23:53 11.9 °C 10 °C 1021.2 hPa Calm     88% 0 mm 0 W/m2
Hartford County Weather
Compliments of Weather Underground - 4 mb